Time;durP1;ratioP1;P1;durP2;ratioP2;P2;SDS_P1;SDS_P2;PMS_P1;PMS_P2;Temp;Humidity;BMP_temperature;BMP_pressure;BME280_temperature;BME280_humidity;BME280_pressure;Samples;Min_cycle;Max_cycle;Signal;HPM_P1;HPM_P2
2021/06/26 00:02:04;;;;;;;99.00;77.30;;;;;;;24.42;100.00;100305.33;1756584;80;21119;-61
2021/06/26 00:04:32;;;;;;;79.60;65.10;;;;;;;24.40;100.00;100298.27;1764049;80;21492;-59
2021/06/26 00:07:02;;;;;;;75.25;59.90;;;;;;;24.37;100.00;100306.80;1756587;80;21080;-61
2021/06/26 00:09:30;;;;;;;37.93;24.87;;;;;;;24.36;100.00;100305.08;1738649;81;21888;-61
2021/06/26 00:11:59;;;;;;;31.20;20.72;;;;;;;24.34;100.00;100311.22;1738272;81;21612;-61
2021/06/26 00:14:27;;;;;;;27.52;18.23;;;;;;;24.32;100.00;100306.76;1742198;81;21341;-60
2021/06/26 00:16:54;;;;;;;30.60;20.08;;;;;;;24.29;100.00;100309.81;1735247;81;21416;-60
2021/06/26 00:19:21;;;;;;;55.88;47.40;;;;;;;24.26;100.00;100302.40;1733758;81;21361;-59
2021/06/26 00:21:48;;;;;;;36.10;27.32;;;;;;;24.23;100.00;100300.85;1748318;81;21032;-61
2021/06/26 00:24:17;;;;;;;16.48;10.72;;;;;;;24.20;100.00;100314.83;1735194;80;21048;-61
2021/06/26 00:26:45;;;;;;;17.70;8.48;;;;;;;24.19;100.00;100315.84;1746344;80;20988;-60
2021/06/26 00:29:12;;;;;;;10.95;7.83;;;;;;;24.16;100.00;100320.26;1745544;81;21102;-61
2021/06/26 00:31:38;;;;;;;12.65;7.80;;;;;;;24.13;100.00;100320.08;1787328;78;20969;-60
2021/06/26 00:34:06;;;;;;;14.90;7.75;;;;;;;24.10;100.00;100319.52;1781966;79;21052;-61
2021/06/26 00:36:33;;;;;;;16.55;8.23;;;;;;;24.06;100.00;100322.20;1798092;78;21325;-60
2021/06/26 00:39:01;;;;;;;16.55;8.00;;;;;;;24.05;100.00;100330.06;1793065;78;21897;-62
2021/06/26 00:41:27;;;;;;;23.87;15.58;;;;;;;24.02;100.00;100322.52;1780268;78;21150;-60
2021/06/26 00:43:54;;;;;;;32.38;26.60;;;;;;;24.00;100.00;100325.88;1790572;78;21080;-61
2021/06/26 00:46:21;;;;;;;35.43;26.52;;;;;;;23.98;100.00;100322.41;1797062;78;21191;-61
2021/06/26 00:48:48;;;;;;;55.45;47.55;;;;;;;23.96;100.00;100323.07;1812992;78;21027;-61
2021/06/26 00:51:15;;;;;;;35.03;28.45;;;;;;;23.93;100.00;100326.12;1811068;78;21043;-61
2021/06/26 00:53:42;;;;;;;45.75;35.88;;;;;;;23.92;100.00;100328.50;1817000;78;21365;-61
2021/06/26 00:56:08;;;;;;;27.48;19.52;;;;;;;23.89;100.00;100316.00;1746054;79;20951;-61
2021/06/26 00:58:35;;;;;;;27.80;18.67;;;;;;;23.86;100.00;100319.01;1711514;82;22383;-59
2021/06/26 01:01:02;;;;;;;40.65;30.88;;;;;;;23.84;100.00;100316.09;1714740;82;21091;-61
2021/06/26 01:03:30;;;;;;;51.00;39.00;;;;;;;23.81;100.00;100315.03;1757036;80;20904;-62
2021/06/26 01:05:58;;;;;;;46.20;34.05;;;;;;;23.78;100.00;100323.55;1758857;79;21397;-62
2021/06/26 01:08:25;;;;;;;24.07;17.62;;;;;;;23.74;100.00;100320.23;1757904;81;21398;-60
2021/06/26 01:10:54;;;;;;;26.15;15.03;;;;;;;23.70;100.00;100322.92;1775917;79;21529;-62
2021/06/26 01:13:21;;;;;;;25.45;17.80;;;;;;;23.67;100.00;100322.70;1774535;79;21001;-61
2021/06/26 01:15:51;;;;;;;45.08;30.32;;;;;;;23.64;100.00;100318.03;1760517;80;21074;-61
2021/06/26 01:18:18;;;;;;;35.25;26.77;;;;;;;23.60;100.00;100313.38;1767167;80;21426;-61
2021/06/26 01:20:45;;;;;;;47.78;37.25;;;;;;;23.57;100.00;100299.48;1759815;80;21569;-60
2021/06/26 01:23:15;;;;;;;64.12;48.78;;;;;;;23.55;100.00;100300.14;1760683;79;21826;-60
2021/06/26 01:25:40;;;;;;;57.90;49.45;;;;;;;23.55;100.00;100297.93;1778121;80;21378;-60
2021/06/26 01:28:07;;;;;;;31.68;21.35;;;;;;;23.54;100.00;100298.91;1765398;80;20952;-61
2021/06/26 01:30:35;;;;;;;48.85;37.98;;;;;;;23.54;100.00;100298.91;1779504;80;21028;-58
2021/06/26 01:33:03;;;;;;;38.08;29.45;;;;;;;23.53;100.00;100301.29;1772946;80;21619;-58
2021/06/26 01:35:30;;;;;;;24.23;14.55;;;;;;;23.53;100.00;100298.55;1773828;79;21125;-58
2021/06/26 01:37:57;;;;;;;26.27;15.53;;;;;;;23.51;100.00;100297.84;1777172;80;20873;-58
2021/06/26 01:40:26;;;;;;;29.87;19.92;;;;;;;23.49;100.00;100286.19;1753129;80;21079;-56
2021/06/26 01:42:54;;;;;;;38.78;24.15;;;;;;;23.45;100.00;100285.13;1754229;80;21048;-57
2021/06/26 01:45:21;;;;;;;38.73;25.97;;;;;;;23.43;100.00;100280.31;1757145;81;21534;-57
2021/06/26 01:47:49;;;;;;;36.98;25.75;;;;;;;23.41;100.00;100285.08;1762258;80;21279;-58
2021/06/26 01:50:17;;;;;;;29.60;20.32;;;;;;;23.40;100.00;100299.77;1753771;80;20954;-58
2021/06/26 01:52:44;;;;;;;26.55;18.12;;;;;;;23.38;100.00;100296.32;1742682;80;20996;-56
2021/06/26 01:55:13;;;;;;;25.70;16.20;;;;;;;23.34;100.00;100288.55;1744088;80;20961;-57
2021/06/26 01:57:44;;;;;;;26.52;13.40;;;;;;;23.32;100.00;100288.69;1747868;80;21034;-57
2021/06/26 02:00:11;;;;;;;28.62;13.40;;;;;;;23.30;100.00;100289.34;1717048;82;21387;-57
2021/06/26 02:02:42;;;;;;;26.77;12.10;;;;;;;23.29;100.00;100283.52;1779331;78;21020;-57
2021/06/26 02:05:10;;;;;;;25.08;11.12;;;;;;;23.28;100.00;100276.33;1789720;77;21068;-57
2021/06/26 02:07:38;;;;;;;25.57;10.72;;;;;;;23.26;100.00;100283.33;1788477;77;20890;-61
2021/06/26 02:10:06;;;;;;;29.77;10.78;;;;;;;23.27;100.00;100277.34;1795042;78;20932;-61
2021/06/26 02:12:33;;;;;;;18.20;9.40;;;;;;;23.29;100.00;100269.36;1789926;77;21653;-63
2021/06/26 02:14:59;;;;;;;15.23;8.93;;;;;;;23.32;100.00;100270.91;1787735;78;21008;-58
2021/06/26 02:17:27;;;;;;;19.48;10.00;;;;;;;23.34;100.00;100275.75;1792699;78;20977;-57
2021/06/26 02:19:54;;;;;;;20.40;9.75;;;;;;;23.39;100.00;100272.55;1792364;78;21474;-58
2021/06/26 02:22:21;;;;;;;25.62;9.65;;;;;;;23.42;100.00;100269.51;1784022;78;20961;-57
2021/06/26 02:24:47;;;;;;;21.45;9.55;;;;;;;23.46;100.00;100272.33;1780502;78;22182;-57
2021/06/26 02:27:15;;;;;;;24.05;11.30;;;;;;;23.50;100.00;100277.84;1788618;77;20937;-57
2021/06/26 02:29:42;;;;;;;32.15;16.00;;;;;;;23.54;100.00;100277.02;1794242;78;21402;-58
2021/06/26 02:32:09;;;;;;;32.48;23.92;;;;;;;23.58;100.00;100286.67;1787951;78;21047;-58
2021/06/26 02:34:35;;;;;;;33.95;22.95;;;;;;;23.59;100.00;100281.56;1798118;79;20949;-57
2021/06/26 02:37:03;;;;;;;32.05;20.20;;;;;;;23.60;100.00;100281.92;1793293;79;21748;-57
2021/06/26 02:39:30;;;;;;;30.08;18.00;;;;;;;23.61;100.00;100273.54;1783259;78;20962;-57
2021/06/26 02:41:59;;;;;;;27.75;15.43;;;;;;;23.63;100.00;100284.34;1735880;80;20937;-58
2021/06/26 02:44:27;;;;;;;26.48;14.47;;;;;;;23.65;100.00;100285.05;1748656;80;21048;-57
2021/06/26 02:46:53;;;;;;;24.18;14.05;;;;;;;23.70;100.00;100279.98;1755060;80;21502;-57
2021/06/26 02:49:20;;;;;;;27.42;17.70;;;;;;;23.78;100.00;100278.39;1725537;80;22459;-56
2021/06/26 02:51:48;;;;;;;28.67;16.77;;;;;;;23.86;100.00;100281.22;1755669;79;20933;-57
2021/06/26 02:54:15;;;;;;;23.02;13.13;;;;;;;23.95;100.00;100283.02;1763816;79;20941;-57
2021/06/26 02:56:42;;;;;;;19.17;12.93;;;;;;;24.03;100.00;100278.19;1756022;79;20872;-58
2021/06/26 02:59:08;;;;;;;19.57;11.45;;;;;;;24.09;100.00;100284.94;1717600;81;22637;-58
2021/06/26 03:01:35;;;;;;;21.20;11.25;;;;;;;24.15;100.00;100295.27;1740736;79;21171;-62
2021/06/26 03:04:02;;;;;;;24.63;11.20;;;;;;;24.20;100.00;100303.88;1745142;80;20972;-62
2021/06/26 03:06:28;;;;;;;28.25;11.05;;;;;;;24.27;100.00;100295.41;1751947;80;20965;-61
2021/06/26 03:08:55;;;;;;;29.35;10.43;;;;;;;24.31;100.00;100296.82;1752103;80;21090;-61
2021/06/26 03:11:22;;;;;;;18.85;9.88;;;;;;;24.39;100.00;100296.55;1716358;80;20902;-61
2021/06/26 03:13:49;;;;;;;17.75;8.98;;;;;;;24.44;100.00;100292.86;1757075;80;21084;-61
2021/06/26 03:16:17;;;;;;;21.17;8.70;;;;;;;24.50;100.00;100289.48;1722755;80;20973;-61
2021/06/26 03:18:45;;;;;;;21.40;8.75;;;;;;;24.57;100.00;100296.05;1724080;80;21462;-62
2021/06/26 03:21:13;;;;;;;13.32;8.93;;;;;;;24.68;100.00;100298.22;1748508;81;21782;-60
2021/06/26 03:23:40;;;;;;;25.48;9.68;;;;;;;24.77;100.00;100308.25;1791601;78;21354;-63
2021/06/26 03:26:07;;;;;;;67.40;50.88;;;;;;;24.85;100.00;100311.58;1771042;79;21804;-61
2021/06/26 03:28:34;;;;;;;83.30;62.80;;;;;;;24.95;99.38;100311.49;1797217;79;20941;-60
2021/06/26 03:31:00;;;;;;;61.83;44.67;;;;;;;25.03;98.71;100317.03;1781420;79;21059;-61
2021/06/26 03:33:27;;;;;;;65.45;51.15;;;;;;;25.12;97.93;100314.72;1795173;79;20960;-61
2021/06/26 03:35:54;;;;;;;72.37;48.30;;;;;;;25.24;97.57;100315.81;1789799;79;21005;-62
2021/06/26 03:38:21;;;;;;;53.70;40.35;;;;;;;25.35;96.34;100321.55;1785253;79;21478;-60
2021/06/26 03:40:50;;;;;;;50.78;29.82;;;;;;;25.45;95.47;100315.45;1790722;79;20999;-62
2021/06/26 03:43:17;;;;;;;46.45;29.75;;;;;;;25.56;94.38;100315.20;1786683;78;21588;-61
2021/06/26 03:45:44;;;;;;;63.83;40.60;;;;;;;25.68;93.41;100318.52;1799530;79;20977;-61
2021/06/26 03:48:11;;;;;;;37.10;24.52;;;;;;;25.80;92.52;100315.50;1801313;78;21056;-58
2021/06/26 03:50:39;;;;;;;41.18;26.87;;;;;;;25.92;91.64;100320.19;1756392;80;22269;-57
2021/06/26 03:53:06;;;;;;;38.83;26.90;;;;;;;26.03;90.78;100326.74;1742829;80;21040;-58
2021/06/26 03:55:32;;;;;;;39.42;22.32;;;;;;;26.13;89.60;100318.36;1760580;80;20871;-57
2021/06/26 03:57:59;;;;;;;29.72;18.00;;;;;;;26.21;89.14;100324.44;1714112;82;21009;-58
2021/06/26 04:00:25;;;;;;;19.67;11.05;;;;;;;26.30;88.48;100324.30;1743358;80;21055;-58
2021/06/26 04:02:53;;;;;;;25.92;10.58;;;;;;;26.44;87.74;100330.18;1758440;80;22201;-57
2021/06/26 04:05:19;;;;;;;23.73;9.93;;;;;;;26.57;86.70;100341.52;1746952;81;21069;-57
2021/06/26 04:07:46;;;;;;;21.00;9.25;;;;;;;26.72;86.13;100347.75;1756934;80;20984;-58
2021/06/26 04:10:12;;;;;;;20.62;9.45;;;;;;;26.85;85.66;100352.24;1757847;81;21029;-58
2021/06/26 04:12:39;;;;;;;18.00;9.20;;;;;;;26.97;84.94;100347.80;1756873;80;21564;-59
2021/06/26 04:15:08;;;;;;;21.48;9.95;;;;;;;27.04;84.58;100346.06;1708162;81;21427;-58
2021/06/26 04:17:36;;;;;;;21.37;9.98;;;;;;;27.10;84.02;100342.65;1723524;81;20974;-59
2021/06/26 04:20:04;;;;;;;17.57;11.25;;;;;;;27.17;82.94;100349.17;1728872;80;21001;-58
2021/06/26 04:22:31;;;;;;;31.48;17.45;;;;;;;27.24;82.27;100347.09;1756763;81;21373;-58
2021/06/26 04:24:58;;;;;;;49.70;35.15;;;;;;;27.26;81.50;100346.40;1757862;80;20966;-58
2021/06/26 04:27:25;;;;;;;34.50;24.52;;;;;;;27.28;80.76;100330.57;1751288;79;21612;-58
2021/06/26 04:29:51;;;;;;;49.10;33.42;;;;;;;27.29;80.45;100328.16;1761744;80;20953;-57
2021/06/26 04:32:18;;;;;;;74.72;52.62;;;;;;;27.34;80.57;100327.15;1719669;81;20965;-58
2021/06/26 04:34:44;;;;;;;44.30;29.10;;;;;;;27.45;80.02;100332.27;1781039;79;20905;-57
2021/06/26 04:37:11;;;;;;;26.33;13.32;;;;;;;27.57;79.77;100325.07;1797715;79;21131;-57
2021/06/26 04:39:37;;;;;;;30.30;12.50;;;;;;;27.68;79.49;100321.08;1788518;79;20977;-58
2021/06/26 04:42:06;;;;;;;22.77;11.38;;;;;;;27.81;79.42;100330.16;1790479;77;21818;-57
2021/06/26 04:44:33;;;;;;;23.98;11.78;;;;;;;27.92;78.54;100333.89;1790740;77;20902;-58
2021/06/26 04:47:00;;;;;;;20.20;10.82;;;;;;;28.03;78.46;100336.77;1773587;77;21038;-57
2021/06/26 04:49:26;;;;;;;28.57;14.73;;;;;;;28.14;78.28;100338.27;1784405;79;21334;-57
2021/06/26 04:51:54;;;;;;;31.33;21.68;;;;;;;28.28;77.56;100334.80;1791477;78;21529;-60
2021/06/26 04:54:21;;;;;;;39.95;20.97;;;;;;;28.40;76.54;100327.48;1789043;78;21036;-59
2021/06/26 04:56:48;;;;;;;36.20;15.08;;;;;;;28.46;75.67;100329.53;1796546;77;20965;-61
2021/06/26 04:59:14;;;;;;;31.70;14.20;;;;;;;28.54;75.03;100326.71;1801236;78;21306;-62
2021/06/26 05:01:41;;;;;;;21.25;13.72;;;;;;;28.64;74.06;100327.01;1782839;78;21036;-58
2021/06/26 05:04:08;;;;;;;38.38;12.93;;;;;;;28.72;73.45;100332.45;1779315;77;21050;-59
2021/06/26 05:06:34;;;;;;;52.48;25.72;;;;;;;28.80;73.41;100336.55;1784089;78;20886;-60
2021/06/26 05:09:01;;;;;;;32.48;22.60;;;;;;;28.89;73.54;100334.59;1785966;78;20970;-61
2021/06/26 05:11:27;;;;;;;25.40;11.88;;;;;;;28.99;73.21;100335.72;1796400;78;21379;-60
2021/06/26 05:13:54;;;;;;;28.20;12.40;;;;;;;29.09;72.89;100325.30;1786468;79;21037;-61
2021/06/26 05:16:21;;;;;;;21.80;10.43;;;;;;;29.17;72.92;100328.48;1782318;79;21099;-60
2021/06/26 05:18:47;;;;;;;25.25;11.12;;;;;;;29.27;73.12;100322.69;1795750;79;21189;-61
2021/06/26 05:21:15;;;;;;;25.20;10.93;;;;;;;29.37;73.38;100321.92;1788279;79;20923;-60
2021/06/26 05:23:42;;;;;;;54.23;39.20;;;;;;;29.47;73.17;100316.66;1794157;78;20870;-60
2021/06/26 05:26:09;;;;;;;29.18;21.15;;;;;;;29.50;72.51;100316.28;1797346;78;20992;-61
2021/06/26 05:28:39;;;;;;;27.82;19.20;;;;;;;29.53;72.36;100322.30;1792706;79;21909;-61
2021/06/26 05:31:06;;;;;;;32.75;21.73;;;;;;;29.51;72.13;100319.38;1786524;79;20967;-61
2021/06/26 05:33:33;;;;;;;42.60;28.47;;;;;;;29.45;72.30;100317.70;1798369;79;21454;-59
2021/06/26 05:35:59;;;;;;;28.92;19.62;;;;;;;29.43;72.92;100318.42;1788776;78;20993;-60
2021/06/26 05:38:26;;;;;;;31.82;19.37;;;;;;;29.44;72.61;100318.75;1786139;79;20886;-63
2021/06/26 05:40:53;;;;;;;28.65;21.10;;;;;;;29.45;72.93;100320.47;1798820;78;21364;-61
2021/06/26 05:43:19;;;;;;;23.05;12.28;;;;;;;29.53;73.01;100320.91;1784430;79;21518;-61
2021/06/26 05:45:46;;;;;;;21.45;10.13;;;;;;;29.64;72.85;100317.36;1800599;79;21060;-61
2021/06/26 05:48:12;;;;;;;24.30;10.25;;;;;;;29.73;72.21;100316.20;1793229;78;21485;-61
2021/06/26 05:50:39;;;;;;;15.08;9.90;;;;;;;29.76;72.03;100309.45;1799995;79;20949;-61
2021/06/26 05:53:05;;;;;;;22.05;10.72;;;;;;;29.80;71.17;100314.38;1802546;79;21673;-61
2021/06/26 05:55:32;;;;;;;19.80;10.95;;;;;;;29.80;70.68;100303.88;1784508;79;21100;-62
2021/06/26 05:57:59;;;;;;;34.10;19.80;;;;;;;29.73;70.19;100294.98;1788367;78;21528;-62
2021/06/26 06:00:27;;;;;;;29.20;18.73;;;;;;;29.68;70.34;100290.53;1786124;78;21454;-62
2021/06/26 06:02:53;;;;;;;42.40;29.15;;;;;;;29.69;69.45;100293.63;1789380;79;21008;-62
2021/06/26 06:05:20;;;;;;;27.77;16.87;;;;;;;29.64;69.89;100280.92;1796420;78;22177;-62
2021/06/26 06:07:46;;;;;;;25.62;13.48;;;;;;;29.65;70.25;100275.72;1787619;79;21737;-61
2021/06/26 06:10:15;;;;;;;28.85;17.80;;;;;;;29.71;70.89;100279.62;1796306;78;20910;-61
2021/06/26 06:12:42;;;;;;;22.27;16.27;;;;;;;29.77;71.63;100272.49;1791814;79;20870;-62
2021/06/26 06:15:11;;;;;;;33.73;21.50;;;;;;;29.86;71.80;100274.09;1786857;79;21380;-61
2021/06/26 06:17:38;;;;;;;30.23;20.62;;;;;;;29.87;70.01;100257.84;1787170;78;21525;-61
2021/06/26 06:20:06;;;;;;;28.62;18.05;;;;;;;29.84;69.73;100260.48;1791502;78;21763;-61
2021/06/26 06:22:33;;;;;;;29.90;19.95;;;;;;;29.81;70.04;100250.34;1789609;79;21577;-59
2021/06/26 06:25:00;;;;;;;25.55;16.77;;;;;;;29.82;69.76;100250.66;1793962;79;21810;-62
2021/06/26 06:27:26;;;;;;;33.00;12.73;;;;;;;29.79;70.05;100246.91;1791153;79;20891;-62
2021/06/26 06:29:53;;;;;;;39.27;28.57;;;;;;;29.73;69.77;100246.64;1792625;78;21165;-61
2021/06/26 06:32:19;;;;;;;35.68;20.65;;;;;;;29.78;69.36;100241.05;1791154;79;20997;-62
2021/06/26 06:34:46;;;;;;;28.52;13.58;;;;;;;29.81;69.35;100244.81;1793020;78;21335;-61
2021/06/26 06:37:13;;;;;;;19.27;11.12;;;;;;;29.88;68.49;100263.70;1798678;79;21127;-61
2021/06/26 06:39:40;;;;;;;29.55;15.93;;;;;;;29.93;68.76;100252.91;1787617;78;21009;-59
2021/06/26 06:42:07;;;;;;;44.33;27.13;;;;;;;30.01;68.57;100250.09;1783803;79;21626;-65
2021/06/26 06:44:33;;;;;;;29.92;13.25;;;;;;;30.13;67.81;100249.56;1788753;78;20981;-64
2021/06/26 06:47:00;;;;;;;26.35;12.85;;;;;;;30.20;66.86;100247.75;1788195;79;21321;-64
2021/06/26 06:49:26;;;;;;;39.35;29.45;;;;;;;30.23;66.89;100255.65;1790493;78;20969;-64
2021/06/26 06:51:54;;;;;;;28.90;15.65;;;;;;;30.26;67.26;100251.62;1786821;79;20993;-64
2021/06/26 06:54:21;;;;;;;25.00;14.47;;;;;;;30.35;67.79;100248.20;1787642;78;21574;-64
2021/06/26 06:56:48;;;;;;;35.13;18.27;;;;;;;30.52;67.18;100255.73;1788282;79;20937;-64
2021/06/26 06:59:14;;;;;;;36.50;21.20;;;;;;;30.68;67.02;100252.70;1785221;78;20885;-64
2021/06/26 07:01:41;;;;;;;37.20;21.02;;;;;;;30.83;66.32;100247.09;1785152;78;21445;-65
2021/06/26 07:04:08;;;;;;;26.37;13.55;;;;;;;30.93;65.62;100251.44;1787271;79;20926;-66
2021/06/26 07:06:36;;;;;;;38.13;24.87;;;;;;;31.02;65.25;100252.98;1794016;79;21965;-64
2021/06/26 07:09:04;;;;;;;48.23;29.30;;;;;;;31.09;64.37;100255.81;1785513;79;21353;-65
2021/06/26 07:11:31;;;;;;;39.58;26.68;;;;;;;31.15;64.31;100250.33;1790489;78;20941;-64
2021/06/26 07:13:59;;;;;;;22.98;15.65;;;;;;;31.27;63.69;100249.78;1782885;79;20981;-64
2021/06/26 07:16:25;;;;;;;25.17;9.90;;;;;;;31.37;62.76;100250.28;1782460;78;21005;-64
2021/06/26 07:18:52;;;;;;;26.07;10.32;;;;;;;31.40;62.17;100248.48;1792740;78;21089;-63
2021/06/26 07:21:19;;;;;;;31.00;10.53;;;;;;;31.45;61.58;100246.50;1794021;78;20992;-65
2021/06/26 07:23:45;;;;;;;21.40;8.90;;;;;;;31.51;61.45;100246.22;1750539;79;21081;-64
2021/06/26 07:26:12;;;;;;;22.37;9.63;;;;;;;31.52;61.25;100250.70;1749792;80;21553;-63
2021/06/26 07:28:38;;;;;;;29.45;11.40;;;;;;;31.53;61.21;100247.70;1723997;80;20972;-65
2021/06/26 07:31:05;;;;;;;30.95;14.33;;;;;;;31.56;61.64;100246.45;1726076;82;21096;-62
2021/06/26 07:33:31;;;;;;;28.40;15.20;;;;;;;31.62;61.44;100242.86;1725802;82;21019;-63
2021/06/26 07:35:59;;;;;;;28.77;11.55;;;;;;;31.67;61.13;100250.02;1751192;79;20973;-63
2021/06/26 07:38:26;;;;;;;34.03;18.57;;;;;;;31.75;60.48;100251.76;1751530;80;20979;-63
2021/06/26 07:40:52;;;;;;;33.88;19.42;;;;;;;31.79;59.68;100253.08;1730996;81;21553;-65
2021/06/26 07:43:19;;;;;;;17.32;8.98;;;;;;;31.80;59.19;100255.33;1726539;81;21599;-63
2021/06/26 07:45:46;;;;;;;15.72;8.85;;;;;;;31.77;59.36;100255.75;1730458;81;20920;-65
2021/06/26 07:48:12;;;;;;;28.67;12.23;;;;;;;31.80;58.75;100248.41;1726781;81;20937;-63
2021/06/26 07:50:39;;;;;;;28.73;15.20;;;;;;;31.82;59.19;100251.82;1727848;81;21040;-63
2021/06/26 07:53:05;;;;;;;32.03;11.60;;;;;;;31.88;59.07;100264.84;1736630;81;20946;-63
2021/06/26 07:55:33;;;;;;;41.68;21.40;;;;;;;31.93;57.26;100260.91;1724692;81;21617;-60
2021/06/26 07:58:02;;;;;;;30.70;11.28;;;;;;;31.99;56.85;100258.72;1728250;81;21379;-59
2021/06/26 08:00:28;;;;;;;29.27;11.83;;;;;;;32.07;57.58;100265.13;1729468;81;21482;-59
2021/06/26 08:02:55;;;;;;;37.33;11.22;;;;;;;32.18;57.55;100261.77;1722319;81;20889;-58
2021/06/26 08:05:23;;;;;;;26.55;8.88;;;;;;;32.26;57.09;100268.50;1733670;81;21565;-60
2021/06/26 08:07:52;;;;;;;32.63;11.35;;;;;;;32.34;56.81;100264.72;1735081;81;21466;-60
2021/06/26 08:10:19;;;;;;;32.75;8.10;;;;;;;32.48;56.05;100285.01;1734452;81;21006;-61
2021/06/26 08:12:47;;;;;;;22.95;8.83;;;;;;;32.55;55.42;100283.09;1725289;81;20981;-58
2021/06/26 08:15:15;;;;;;;26.12;8.95;;;;;;;32.62;55.35;100284.49;1730318;81;21900;-60
2021/06/26 08:17:41;;;;;;;27.95;9.15;;;;;;;32.75;55.69;100286.98;1737600;81;21397;-59
2021/06/26 08:20:09;;;;;;;27.07;9.30;;;;;;;32.86;54.89;100283.03;1728562;81;21473;-59
2021/06/26 08:22:35;;;;;;;27.15;8.75;;;;;;;32.96;54.47;100290.09;1729159;81;20952;-64
2021/06/26 08:25:02;;;;;;;23.10;8.78;;;;;;;33.07;54.06;100287.22;1728026;81;21573;-59
2021/06/26 08:27:28;;;;;;;21.50;9.18;;;;;;;33.14;54.00;100280.59;1733303;81;21319;-59
2021/06/26 08:29:55;;;;;;;26.70;9.08;;;;;;;33.26;53.84;100275.75;1783869;78;21496;-58
2021/06/26 08:32:21;;;;;;;23.98;7.83;;;;;;;33.34;52.76;100278.33;1787812;77;21111;-65
2021/06/26 08:34:49;;;;;;;27.42;8.40;;;;;;;33.41;52.53;100274.98;1784574;79;21494;-63
2021/06/26 08:37:16;;;;;;;27.70;9.25;;;;;;;33.50;52.16;100278.42;1791731;77;21068;-59
2021/06/26 08:39:43;;;;;;;22.55;8.83;;;;;;;33.54;52.45;100280.23;1786250;78;20970;-63
2021/06/26 08:42:10;;;;;;;26.90;9.28;;;;;;;33.60;52.46;100279.88;1789161;78;20977;-59
2021/06/26 08:44:36;;;;;;;26.97;9.58;;;;;;;33.67;52.77;100278.80;1781251;78;21786;-59
2021/06/26 08:47:03;;;;;;;28.25;9.83;;;;;;;33.75;52.38;100275.47;1760073;79;20871;-59
2021/06/26 08:49:30;;;;;;;24.25;9.23;;;;;;;33.79;51.59;100273.95;1795873;78;21545;-64
2021/06/26 08:51:59;;;;;;;29.92;9.15;;;;;;;33.82;51.72;100279.08;1795956;78;21063;-65
2021/06/26 08:54:25;;;;;;;27.98;8.63;;;;;;;33.85;51.74;100273.06;1793901;78;21525;-63
2021/06/26 08:56:52;;;;;;;23.62;9.13;;;;;;;33.89;51.75;100274.33;1792628;78;21937;-64
2021/06/26 08:59:19;;;;;;;31.48;8.70;;;;;;;33.92;51.21;100279.45;1791423;79;21025;-64
2021/06/26 09:01:45;;;;;;;26.52;10.35;;;;;;;33.93;51.30;100275.59;1782597;78;20900;-59
2021/06/26 09:04:16;;;;;;;25.25;9.33;;;;;;;33.95;51.84;100277.64;1788940;79;21026;-59
2021/06/26 09:06:54;;;;;;;21.52;8.63;;;;;;;33.99;51.62;100273.89;1783708;79;21350;-59
2021/06/26 09:09:35;;;;;;;24.43;9.30;;;;;;;33.95;51.24;100274.86;1789804;78;21109;-64
2021/06/26 09:12:11;;;;;;;27.13;8.65;;;;;;;33.87;51.31;100268.14;1786139;78;21458;-63
2021/06/26 09:14:39;;;;;;;25.82;9.50;;;;;;;33.82;51.82;100274.38;1790141;78;21525;-63
2021/06/26 09:17:06;;;;;;;26.65;8.60;;;;;;;33.79;52.29;100268.40;1792794;78;20993;-64
2021/06/26 09:19:35;;;;;;;20.25;9.45;;;;;;;33.76;52.69;100264.13;1776872;78;21129;-64
2021/06/26 09:22:08;;;;;;;22.98;9.38;;;;;;;33.74;52.93;100270.99;1787779;78;21089;-63
2021/06/26 09:24:49;;;;;;;28.42;9.13;;;;;;;33.75;53.16;100258.80;1747524;80;20859;-65
2021/06/26 09:27:18;;;;;;;25.88;8.80;;;;;;;33.78;53.63;100264.75;1743454;80;21625;-65
2021/06/26 09:29:52;;;;;;;26.33;9.20;;;;;;;33.76;52.94;100266.06;1735044;81;20901;-64
2021/06/26 09:32:24;;;;;;;22.87;9.08;;;;;;;33.74;52.89;100254.31;1738115;81;21056;-63
2021/06/26 09:34:51;;;;;;;30.72;10.45;;;;;;;33.76;53.29;100258.56;1742502;81;21120;-64
2021/06/26 09:37:29;;;;;;;24.55;9.78;;;;;;;33.76;53.54;100257.72;1735196;81;21080;-64
2021/06/26 09:39:58;;;;;;;22.62;10.20;;;;;;;33.76;53.68;100268.84;1752175;81;21043;-63
2021/06/26 09:42:31;;;;;;;24.75;9.18;;;;;;;33.74;53.96;100255.70;1796936;78;20925;-64
2021/06/26 09:45:01;;;;;;;24.45;9.58;;;;;;;33.70;53.86;100257.51;1794398;79;21146;-65
2021/06/26 09:47:40;;;;;;;28.00;8.55;;;;;;;33.69;53.55;100255.80;1792516;78;21911;-64
2021/06/26 09:50:18;;;;;;;21.42;9.03;;;;;;;33.64;53.26;100261.17;1794789;78;20983;-65
2021/06/26 09:53:00;;;;;;;18.95;8.83;;;;;;;33.57;53.28;100259.80;1789182;78;21394;-62
2021/06/26 09:55:30;;;;;;;22.48;9.10;;;;;;;33.55;53.77;100256.94;1795197;78;20950;-64
2021/06/26 09:58:11;;;;;;;22.62;8.38;;;;;;;33.55;53.84;100245.27;1786829;79;20954;-63
2021/06/26 10:00:40;;;;;;;22.67;9.23;;;;;;;33.54;52.94;100253.30;1780175;79;21434;-58
2021/06/26 10:03:07;;;;;;;22.70;8.65;;;;;;;33.49;53.05;100252.23;1792179;78;20894;-59
2021/06/26 10:05:34;;;;;;;26.62;7.97;;;;;;;33.42;53.43;100247.55;1796898;78;21598;-58
2021/06/26 10:08:06;;;;;;;24.30;8.50;;;;;;;33.46;53.77;100252.67;1784847;78;21471;-60
2021/06/26 10:10:32;;;;;;;21.20;8.30;;;;;;;33.45;53.70;100240.72;1796029;78;20923;-58
2021/06/26 10:12:59;;;;;;;23.02;9.60;;;;;;;33.41;53.89;100236.65;1791269;78;21083;-60
2021/06/26 10:15:33;;;;;;;22.70;8.60;;;;;;;33.34;53.97;100232.50;1792613;78;20929;-60
2021/06/26 10:18:00;;;;;;;31.30;9.23;;;;;;;33.28;54.08;100230.05;1788617;78;22180;-60
2021/06/26 10:20:27;;;;;;;23.77;9.75;;;;;;;33.18;54.44;100228.78;1786759;79;20989;-60
2021/06/26 10:22:58;;;;;;;27.48;9.70;;;;;;;33.06;54.86;100223.91;1790182;78;20977;-58
2021/06/26 10:25:36;;;;;;;24.02;10.08;;;;;;;32.97;55.08;100225.19;1789390;78;21531;-58
2021/06/26 10:28:12;;;;;;;19.20;10.08;;;;;;;32.86;55.45;100226.13;1781319;78;21061;-59
2021/06/26 10:30:39;;;;;;;19.37;9.13;;;;;;;32.80;56.14;100220.03;1781028;78;20917;-58
2021/06/26 10:33:13;;;;;;;21.20;9.38;;;;;;;32.75;56.25;100222.59;1782987;78;20905;-58
2021/06/26 10:35:41;;;;;;;30.25;9.35;;;;;;;32.67;56.44;100225.59;1787800;78;20882;-58
2021/06/26 10:38:12;;;;;;;29.60;9.38;;;;;;;32.55;56.47;100223.45;1780829;78;21743;-58
2021/06/26 10:40:48;;;;;;;20.12;7.85;;;;;;;32.46;57.09;100228.89;1793455;78;20970;-59
2021/06/26 10:43:31;;;;;;;25.72;8.85;;;;;;;32.40;56.75;100232.52;1784959;78;20950;-60
2021/06/26 10:46:15;;;;;;;27.60;9.63;;;;;;;32.34;56.41;100231.44;1791384;78;21410;-59
2021/06/26 10:48:44;;;;;;;18.87;9.90;;;;;;;32.29;57.72;100230.64;1790573;78;21032;-59
2021/06/26 10:51:12;;;;;;;31.20;10.23;;;;;;;32.28;58.12;100226.16;1802478;78;21942;-58
2021/06/26 10:53:40;;;;;;;28.12;9.93;;;;;;;32.27;58.02;100227.23;1799819;78;20914;-59
2021/06/26 10:56:11;;;;;;;23.90;9.45;;;;;;;32.27;57.74;100220.30;1804014;77;21160;-59
2021/06/26 10:58:45;;;;;;;23.22;8.65;;;;;;;32.26;57.97;100219.97;1798142;78;20973;-59
2021/06/26 11:01:21;;;;;;;23.83;8.83;;;;;;;32.22;57.61;100227.01;1791302;77;21082;-59
2021/06/26 11:03:51;;;;;;;27.17;8.83;;;;;;;32.21;57.78;100230.84;1791477;78;20925;-58
2021/06/26 11:06:25;;;;;;;21.75;9.00;;;;;;;32.19;57.50;100227.43;1801862;78;21456;-59
2021/06/26 11:09:11;;;;;;;22.05;9.00;;;;;;;32.20;57.79;100233.81;1805220;79;21449;-59
2021/06/26 11:11:44;;;;;;;21.82;8.68;;;;;;;32.20;57.01;100229.14;1797391;78;21266;-59
2021/06/26 11:14:24;;;;;;;24.12;8.88;;;;;;;32.21;56.48;100236.91;1792378;77;20998;-59